sensor_id;sensor_type;location;lat;lon;timestamp;P1;durP1;ratioP1;P2;durP2;ratioP2
51616;SDS011;37697;52.588;13.394;2022-08-03T00:04:37;8.98;;;3.60;;
51616;SDS011;37697;52.588;13.394;2022-08-03T00:09:38;6.72;;;3.25;;
51616;SDS011;37697;52.588;13.394;2022-08-03T00:14:38;5.62;;;3.50;;
51616;SDS011;37697;52.588;13.394;2022-08-03T00:19:39;7.70;;;3.80;;
51616;SDS011;37697;52.588;13.394;2022-08-03T00:24:39;7.05;;;3.25;;
51616;SDS011;37697;52.588;13.394;2022-08-03T00:34:41;4.13;;;2.70;;
51616;SDS011;37697;52.588;13.394;2022-08-03T00:39:42;7.28;;;3.25;;
51616;SDS011;37697;52.588;13.394;2022-08-03T00:44:44;7.70;;;3.80;;
51616;SDS011;37697;52.588;13.394;2022-08-03T00:49:45;4.87;;;2.98;;
51616;SDS011;37697;52.588;13.394;2022-08-03T00:54:46;5.20;;;3.05;;
51616;SDS011;37697;52.588;13.394;2022-08-03T00:59:46;5.20;;;3.08;;
51616;SDS011;37697;52.588;13.394;2022-08-03T01:04:47;6.90;;;3.50;;
51616;SDS011;37697;52.588;13.394;2022-08-03T01:10:00;4.92;;;2.90;;
51616;SDS011;37697;52.588;13.394;2022-08-03T01:20:31;6.30;;;2.87;;
51616;SDS011;37697;52.588;13.394;2022-08-03T01:25:53;5.00;;;2.98;;
51616;SDS011;37697;52.588;13.394;2022-08-03T01:31:03;6.05;;;3.00;;
51616;SDS011;37697;52.588;13.394;2022-08-03T01:36:15;4.83;;;3.30;;
51616;SDS011;37697;52.588;13.394;2022-08-03T01:41:30;5.58;;;2.83;;
51616;SDS011;37697;52.588;13.394;2022-08-03T01:46:33;5.15;;;3.35;;
51616;SDS011;37697;52.588;13.394;2022-08-03T01:51:38;6.05;;;3.00;;
51616;SDS011;37697;52.588;13.394;2022-08-03T01:56:42;6.62;;;3.00;;
51616;SDS011;37697;52.588;13.394;2022-08-03T02:01:44;5.55;;;2.95;;
51616;SDS011;37697;52.588;13.394;2022-08-03T02:06:47;4.28;;;3.05;;
51616;SDS011;37697;52.588;13.394;2022-08-03T02:11:50;7.28;;;2.90;;
51616;SDS011;37697;52.588;13.394;2022-08-03T02:16:52;4.85;;;2.80;;
51616;SDS011;37697;52.588;13.394;2022-08-03T02:21:54;4.75;;;3.00;;
51616;SDS011;37697;52.588;13.394;2022-08-03T02:26:57;5.70;;;3.10;;
51616;SDS011;37697;52.588;13.394;2022-08-03T02:31:59;5.08;;;2.80;;
51616;SDS011;37697;52.588;13.394;2022-08-03T02:37:03;7.33;;;3.10;;
51616;SDS011;37697;52.588;13.394;2022-08-03T02:42:07;6.08;;;2.85;;
51616;SDS011;37697;52.588;13.394;2022-08-03T02:47:11;7.33;;;3.37;;
51616;SDS011;37697;52.588;13.394;2022-08-03T02:52:14;5.47;;;3.02;;
51616;SDS011;37697;52.588;13.394;2022-08-03T02:57:17;3.62;;;2.72;;
51616;SDS011;37697;52.588;13.394;2022-08-03T03:02:20;6.10;;;2.70;;
51616;SDS011;37697;52.588;13.394;2022-08-03T03:07:22;5.28;;;2.80;;
51616;SDS011;37697;52.588;13.394;2022-08-03T03:12:23;4.90;;;2.70;;
51616;SDS011;37697;52.588;13.394;2022-08-03T03:17:26;5.35;;;2.90;;
51616;SDS011;37697;52.588;13.394;2022-08-03T03:22:27;5.35;;;3.20;;
51616;SDS011;37697;52.588;13.394;2022-08-03T03:27:30;6.92;;;3.40;;
51616;SDS011;37697;52.588;13.394;2022-08-03T03:32:33;5.25;;;2.77;;
51616;SDS011;37697;52.588;13.394;2022-08-03T03:37:36;7.78;;;2.62;;
51616;SDS011;37697;52.588;13.394;2022-08-03T03:42:36;5.78;;;3.17;;
51616;SDS011;37697;52.588;13.394;2022-08-03T03:47:37;5.83;;;3.35;;
51616;SDS011;37697;52.588;13.394;2022-08-03T03:52:38;4.28;;;3.08;;
51616;SDS011;37697;52.588;13.394;2022-08-03T03:57:39;4.83;;;3.10;;
51616;SDS011;37697;52.588;13.394;2022-08-03T04:02:40;4.90;;;2.92;;
51616;SDS011;37697;52.588;13.394;2022-08-03T04:13:17;4.95;;;2.67;;
51616;SDS011;37697;52.588;13.394;2022-08-03T04:18:20;6.58;;;3.02;;
51616;SDS011;37697;52.588;13.394;2022-08-03T04:23:23;4.30;;;3.17;;
51616;SDS011;37697;52.588;13.394;2022-08-03T04:28:26;5.42;;;3.02;;
51616;SDS011;37697;52.588;13.394;2022-08-03T04:33:28;3.77;;;2.87;;
51616;SDS011;37697;52.588;13.394;2022-08-03T04:38:32;5.80;;;3.25;;
51616;SDS011;37697;52.588;13.394;2022-08-03T04:43:39;6.35;;;3.37;;
51616;SDS011;37697;52.588;13.394;2022-08-03T04:48:40;6.62;;;3.25;;
51616;SDS011;37697;52.588;13.394;2022-08-03T04:53:42;3.85;;;3.27;;
51616;SDS011;37697;52.588;13.394;2022-08-03T04:58:43;4.87;;;3.10;;
51616;SDS011;37697;52.588;13.394;2022-08-03T05:03:49;4.75;;;3.60;;
51616;SDS011;37697;52.588;13.394;2022-08-03T05:08:47;5.97;;;3.33;;
51616;SDS011;37697;52.588;13.394;2022-08-03T05:13:48;7.85;;;3.50;;
51616;SDS011;37697;52.588;13.394;2022-08-03T05:18:49;9.05;;;3.20;;
51616;SDS011;37697;52.588;13.394;2022-08-03T05:23:49;6.70;;;3.42;;
51616;SDS011;37697;52.588;13.394;2022-08-03T05:28:50;7.30;;;3.13;;
51616;SDS011;37697;52.588;13.394;2022-08-03T05:33:52;7.62;;;3.42;;
51616;SDS011;37697;52.588;13.394;2022-08-03T05:38:53;5.30;;;3.20;;
51616;SDS011;37697;52.588;13.394;2022-08-03T05:43:54;6.53;;;2.77;;
51616;SDS011;37697;52.588;13.394;2022-08-03T05:48:55;5.37;;;2.80;;
51616;SDS011;37697;52.588;13.394;2022-08-03T05:53:56;6.58;;;2.20;;
51616;SDS011;37697;52.588;13.394;2022-08-03T05:58:56;6.50;;;2.50;;
51616;SDS011;37697;52.588;13.394;2022-08-03T06:03:57;3.95;;;2.20;;
51616;SDS011;37697;52.588;13.394;2022-08-03T06:08:58;6.33;;;2.07;;
51616;SDS011;37697;52.588;13.394;2022-08-03T06:13:59;6.05;;;2.30;;
51616;SDS011;37697;52.588;13.394;2022-08-03T06:19:00;6.95;;;2.10;;
51616;SDS011;37697;52.588;13.394;2022-08-03T06:24:01;10.70;;;2.05;;
51616;SDS011;37697;52.588;13.394;2022-08-03T06:29:02;7.17;;;2.30;;
51616;SDS011;37697;52.588;13.394;2022-08-03T06:34:03;5.25;;;2.30;;
51616;SDS011;37697;52.588;13.394;2022-08-03T06:39:05;7.55;;;1.98;;
51616;SDS011;37697;52.588;13.394;2022-08-03T06:44:06;7.03;;;2.33;;
51616;SDS011;37697;52.588;13.394;2022-08-03T06:49:08;9.10;;;2.35;;
51616;SDS011;37697;52.588;13.394;2022-08-03T06:54:08;6.75;;;2.02;;
51616;SDS011;37697;52.588;13.394;2022-08-03T06:59:10;6.03;;;2.20;;
51616;SDS011;37697;52.588;13.394;2022-08-03T07:04:11;5.30;;;1.87;;
51616;SDS011;37697;52.588;13.394;2022-08-03T07:09:11;7.17;;;1.80;;
51616;SDS011;37697;52.588;13.394;2022-08-03T07:14:12;9.50;;;2.25;;
51616;SDS011;37697;52.588;13.394;2022-08-03T07:19:13;5.47;;;1.80;;
51616;SDS011;37697;52.588;13.394;2022-08-03T07:24:13;5.95;;;1.85;;
51616;SDS011;37697;52.588;13.394;2022-08-03T07:29:14;4.17;;;1.85;;
51616;SDS011;37697;52.588;13.394;2022-08-03T07:34:15;6.33;;;1.65;;
51616;SDS011;37697;52.588;13.394;2022-08-03T07:39:16;5.15;;;1.52;;
51616;SDS011;37697;52.588;13.394;2022-08-03T07:44:19;3.20;;;1.55;;
51616;SDS011;37697;52.588;13.394;2022-08-03T07:49:20;6.45;;;1.60;;
51616;SDS011;37697;52.588;13.394;2022-08-03T07:54:21;4.17;;;1.52;;
51616;SDS011;37697;52.588;13.394;2022-08-03T07:59:22;3.15;;;1.52;;
51616;SDS011;37697;52.588;13.394;2022-08-03T08:04:23;5.58;;;1.60;;
51616;SDS011;37697;52.588;13.394;2022-08-03T08:09:23;4.28;;;1.35;;
51616;SDS011;37697;52.588;13.394;2022-08-03T08:14:24;4.55;;;1.50;;
51616;SDS011;37697;52.588;13.394;2022-08-03T08:19:25;3.08;;;1.40;;
51616;SDS011;37697;52.588;13.394;2022-08-03T08:24:27;4.70;;;1.15;;
51616;SDS011;37697;52.588;13.394;2022-08-03T08:29:29;3.85;;;1.35;;
51616;SDS011;37697;52.588;13.394;2022-08-03T08:34:30;3.47;;;1.52;;
51616;SDS011;37697;52.588;13.394;2022-08-03T08:39:30;3.10;;;1.30;;
51616;SDS011;37697;52.588;13.394;2022-08-03T08:44:31;2.87;;;1.10;;
51616;SDS011;37697;52.588;13.394;2022-08-03T08:49:32;2.67;;;1.35;;
51616;SDS011;37697;52.588;13.394;2022-08-03T08:54:35;1.98;;;1.45;;
51616;SDS011;37697;52.588;13.394;2022-08-03T08:59:43;5.95;;;1.40;;
51616;SDS011;37697;52.588;13.394;2022-08-03T09:04:44;3.15;;;1.40;;
51616;SDS011;37697;52.588;13.394;2022-08-03T09:09:47;4.62;;;1.57;;
51616;SDS011;37697;52.588;13.394;2022-08-03T09:14:50;3.30;;;1.30;;
51616;SDS011;37697;52.588;13.394;2022-08-03T09:20:02;5.13;;;1.30;;
51616;SDS011;37697;52.588;13.394;2022-08-03T09:25:07;5.10;;;1.57;;
51616;SDS011;37697;52.588;13.394;2022-08-03T09:30:14;6.40;;;1.20;;
51616;SDS011;37697;52.588;13.394;2022-08-03T09:35:16;2.77;;;1.30;;
51616;SDS011;37697;52.588;13.394;2022-08-03T09:40:35;3.08;;;1.40;;
51616;SDS011;37697;52.588;13.394;2022-08-03T09:45:37;3.33;;;1.20;;
51616;SDS011;37697;52.588;13.394;2022-08-03T09:50:52;3.70;;;1.35;;
51616;SDS011;37697;52.588;13.394;2022-08-03T09:55:57;4.25;;;1.40;;
51616;SDS011;37697;52.588;13.394;2022-08-03T10:01:02;6.55;;;1.50;;
51616;SDS011;37697;52.588;13.394;2022-08-03T10:06:14;9.75;;;1.72;;
51616;SDS011;37697;52.588;13.394;2022-08-03T10:11:31;3.12;;;1.20;;
51616;SDS011;37697;52.588;13.394;2022-08-03T10:16:35;2.33;;;1.22;;
51616;SDS011;37697;52.588;13.394;2022-08-03T10:21:39;2.50;;;1.20;;
51616;SDS011;37697;52.588;13.394;2022-08-03T10:26:44;5.25;;;1.40;;
51616;SDS011;37697;52.588;13.394;2022-08-03T10:31:46;4.05;;;1.30;;
51616;SDS011;37697;52.588;13.394;2022-08-03T10:36:49;3.45;;;1.00;;
51616;SDS011;37697;52.588;13.394;2022-08-03T10:41:56;4.50;;;1.30;;
51616;SDS011;37697;52.588;13.394;2022-08-03T10:46:58;2.52;;;1.30;;
51616;SDS011;37697;52.588;13.394;2022-08-03T10:52:01;2.30;;;1.47;;
51616;SDS011;37697;52.588;13.394;2022-08-03T10:57:04;4.25;;;1.10;;
51616;SDS011;37697;52.588;13.394;2022-08-03T11:02:30;3.77;;;1.47;;
51616;SDS011;37697;52.588;13.394;2022-08-03T11:07:30;5.33;;;1.47;;
51616;SDS011;37697;52.588;13.394;2022-08-03T11:12:32;2.20;;;1.30;;
51616;SDS011;37697;52.588;13.394;2022-08-03T11:17:33;2.20;;;1.20;;
51616;SDS011;37697;52.588;13.394;2022-08-03T11:22:48;2.37;;;1.10;;
51616;SDS011;37697;52.588;13.394;2022-08-03T11:28:22;2.00;;;1.10;;
51616;SDS011;37697;52.588;13.394;2022-08-03T11:33:28;2.30;;;1.20;;
51616;SDS011;37697;52.588;13.394;2022-08-03T11:38:30;1.70;;;1.20;;
51616;SDS011;37697;52.588;13.394;2022-08-03T11:48:39;1.67;;;1.00;;
51616;SDS011;37697;52.588;13.394;2022-08-03T11:53:50;2.60;;;1.27;;
51616;SDS011;37697;52.588;13.394;2022-08-03T11:58:57;2.40;;;1.10;;
51616;SDS011;37697;52.588;13.394;2022-08-03T12:04:02;3.60;;;1.37;;
51616;SDS011;37697;52.588;13.394;2022-08-03T12:09:14;1.45;;;1.20;;
51616;SDS011;37697;52.588;13.394;2022-08-03T12:14:16;3.80;;;1.17;;
51616;SDS011;37697;52.588;13.394;2022-08-03T12:19:19;4.42;;;1.10;;
51616;SDS011;37697;52.588;13.394;2022-08-03T12:24:19;1.30;;;1.10;;
51616;SDS011;37697;52.588;13.394;2022-08-03T12:29:21;3.33;;;1.25;;
51616;SDS011;37697;52.588;13.394;2022-08-03T12:34:43;2.17;;;1.00;;
51616;SDS011;37697;52.588;13.394;2022-08-03T12:39:48;3.37;;;1.22;;
51616;SDS011;37697;52.588;13.394;2022-08-03T12:44:54;2.75;;;1.00;;
51616;SDS011;37697;52.588;13.394;2022-08-03T12:49:54;2.67;;;1.20;;
51616;SDS011;37697;52.588;13.394;2022-08-03T12:54:56;2.58;;;1.20;;
51616;SDS011;37697;52.588;13.394;2022-08-03T13:00:08;3.70;;;1.45;;
51616;SDS011;37697;52.588;13.394;2022-08-03T13:05:12;2.85;;;1.10;;
51616;SDS011;37697;52.588;13.394;2022-08-03T13:10:26;1.90;;;1.27;;
51616;SDS011;37697;52.588;13.394;2022-08-03T13:15:31;2.60;;;1.10;;
51616;SDS011;37697;52.588;13.394;2022-08-03T13:20:32;1.70;;;1.20;;
51616;SDS011;37697;52.588;13.394;2022-08-03T13:25:33;2.10;;;1.15;;
51616;SDS011;37697;52.588;13.394;2022-08-03T13:30:34;3.55;;;1.10;;
51616;SDS011;37697;52.588;13.394;2022-08-03T13:35:35;1.70;;;1.00;;
51616;SDS011;37697;52.588;13.394;2022-08-03T13:40:36;1.67;;;1.10;;
51616;SDS011;37697;52.588;13.394;2022-08-03T13:45:37;1.75;;;1.10;;
51616;SDS011;37697;52.588;13.394;2022-08-03T13:50:38;2.12;;;1.02;;
51616;SDS011;37697;52.588;13.394;2022-08-03T13:55:39;2.98;;;1.00;;
51616;SDS011;37697;52.588;13.394;2022-08-03T14:00:40;4.05;;;1.10;;
51616;SDS011;37697;52.588;13.394;2022-08-03T14:05:41;2.58;;;1.10;;
51616;SDS011;37697;52.588;13.394;2022-08-03T14:10:43;2.50;;;1.12;;
51616;SDS011;37697;52.588;13.394;2022-08-03T14:15:45;2.05;;;1.22;;
51616;SDS011;37697;52.588;13.394;2022-08-03T14:20:47;8.65;;;1.70;;
51616;SDS011;37697;52.588;13.394;2022-08-03T14:25:48;2.47;;;1.20;;
51616;SDS011;37697;52.588;13.394;2022-08-03T14:30:53;5.03;;;1.30;;
51616;SDS011;37697;52.588;13.394;2022-08-03T14:35:53;3.37;;;1.22;;
51616;SDS011;37697;52.588;13.394;2022-08-03T14:40:54;4.37;;;1.27;;
51616;SDS011;37697;52.588;13.394;2022-08-03T14:45:55;3.15;;;1.40;;
51616;SDS011;37697;52.588;13.394;2022-08-03T14:50:56;2.92;;;1.10;;
51616;SDS011;37697;52.588;13.394;2022-08-03T14:55:57;1.27;;;1.05;;
51616;SDS011;37697;52.588;13.394;2022-08-03T15:00:57;2.05;;;1.25;;
51616;SDS011;37697;52.588;13.394;2022-08-03T15:05:58;2.60;;;1.23;;
51616;SDS011;37697;52.588;13.394;2022-08-03T15:10:59;3.30;;;1.30;;
51616;SDS011;37697;52.588;13.394;2022-08-03T15:16:00;6.95;;;1.20;;
51616;SDS011;37697;52.588;13.394;2022-08-03T15:21:00;2.25;;;1.30;;
51616;SDS011;37697;52.588;13.394;2022-08-03T15:26:01;2.37;;;1.20;;
51616;SDS011;37697;52.588;13.394;2022-08-03T15:31:02;2.65;;;1.30;;
51616;SDS011;37697;52.588;13.394;2022-08-03T15:36:03;2.67;;;1.12;;
51616;SDS011;37697;52.588;13.394;2022-08-03T15:41:04;4.47;;;1.40;;
51616;SDS011;37697;52.588;13.394;2022-08-03T15:46:05;3.90;;;1.37;;
51616;SDS011;37697;52.588;13.394;2022-08-03T15:51:06;9.50;;;1.65;;
51616;SDS011;37697;52.588;13.394;2022-08-03T15:56:08;4.47;;;1.40;;
51616;SDS011;37697;52.588;13.394;2022-08-03T16:01:10;3.90;;;1.57;;
51616;SDS011;37697;52.588;13.394;2022-08-03T16:06:11;1.50;;;1.20;;
51616;SDS011;37697;52.588;13.394;2022-08-03T16:11:13;5.05;;;1.20;;
51616;SDS011;37697;52.588;13.394;2022-08-03T16:16:13;5.45;;;1.50;;
51616;SDS011;37697;52.588;13.394;2022-08-03T16:21:14;2.87;;;1.40;;
51616;SDS011;37697;52.588;13.394;2022-08-03T16:26:16;2.17;;;1.30;;
51616;SDS011;37697;52.588;13.394;2022-08-03T16:31:17;2.25;;;1.35;;
51616;SDS011;37697;52.588;13.394;2022-08-03T16:36:17;1.92;;;1.20;;
51616;SDS011;37697;52.588;13.394;2022-08-03T16:41:18;3.00;;;1.40;;
51616;SDS011;37697;52.588;13.394;2022-08-03T16:46:19;1.67;;;1.30;;
51616;SDS011;37697;52.588;13.394;2022-08-03T16:51:20;3.75;;;1.40;;
51616;SDS011;37697;52.588;13.394;2022-08-03T16:56:22;18.23;;;3.33;;
51616;SDS011;37697;52.588;13.394;2022-08-03T17:01:23;4.15;;;2.10;;
51616;SDS011;37697;52.588;13.394;2022-08-03T17:06:24;3.25;;;1.32;;
51616;SDS011;37697;52.588;13.394;2022-08-03T17:11:26;3.90;;;1.50;;
51616;SDS011;37697;52.588;13.394;2022-08-03T17:16:27;3.72;;;1.47;;
51616;SDS011;37697;52.588;13.394;2022-08-03T17:21:28;1.42;;;1.22;;
51616;SDS011;37697;52.588;13.394;2022-08-03T17:26:32;3.62;;;1.32;;
51616;SDS011;37697;52.588;13.394;2022-08-03T17:31:37;1.80;;;1.30;;
51616;SDS011;37697;52.588;13.394;2022-08-03T17:36:42;2.55;;;1.15;;
51616;SDS011;37697;52.588;13.394;2022-08-03T17:41:44;2.72;;;1.40;;
51616;SDS011;37697;52.588;13.394;2022-08-03T17:46:44;2.63;;;1.37;;
51616;SDS011;37697;52.588;13.394;2022-08-03T17:52:00;5.30;;;2.08;;
51616;SDS011;37697;52.588;13.394;2022-08-03T17:57:18;5.12;;;1.40;;
51616;SDS011;37697;52.588;13.394;2022-08-03T18:08:07;2.58;;;1.32;;
51616;SDS011;37697;52.588;13.394;2022-08-03T18:13:11;2.42;;;1.42;;
51616;SDS011;37697;52.588;13.394;2022-08-03T18:18:16;3.37;;;1.65;;
51616;SDS011;37697;52.588;13.394;2022-08-03T18:23:19;4.30;;;1.60;;
51616;SDS011;37697;52.588;13.394;2022-08-03T18:28:21;5.12;;;1.67;;
51616;SDS011;37697;52.588;13.394;2022-08-03T18:33:25;2.62;;;1.57;;
51616;SDS011;37697;52.588;13.394;2022-08-03T18:38:26;2.25;;;1.70;;
51616;SDS011;37697;52.588;13.394;2022-08-03T18:43:28;3.22;;;1.60;;
51616;SDS011;37697;52.588;13.394;2022-08-03T18:48:34;2.20;;;1.80;;
51616;SDS011;37697;52.588;13.394;2022-08-03T18:59:14;5.17;;;3.17;;
51616;SDS011;37697;52.588;13.394;2022-08-03T19:04:43;4.83;;;3.55;;
51616;SDS011;37697;52.588;13.394;2022-08-03T19:09:47;6.72;;;3.22;;
51616;SDS011;37697;52.588;13.394;2022-08-03T19:15:00;7.17;;;3.08;;
51616;SDS011;37697;52.588;13.394;2022-08-03T19:20:20;10.25;;;2.50;;
51616;SDS011;37697;52.588;13.394;2022-08-03T19:25:26;6.25;;;2.85;;
51616;SDS011;37697;52.588;13.394;2022-08-03T19:30:27;5.17;;;2.83;;
51616;SDS011;37697;52.588;13.394;2022-08-03T19:35:38;6.78;;;2.83;;
51616;SDS011;37697;52.588;13.394;2022-08-03T19:40:47;6.53;;;2.98;;
51616;SDS011;37697;52.588;13.394;2022-08-03T19:45:51;5.78;;;3.10;;
51616;SDS011;37697;52.588;13.394;2022-08-03T19:50:54;6.53;;;2.83;;
51616;SDS011;37697;52.588;13.394;2022-08-03T19:55:57;6.92;;;3.02;;
51616;SDS011;37697;52.588;13.394;2022-08-03T20:01:02;7.05;;;2.70;;
51616;SDS011;37697;52.588;13.394;2022-08-03T20:06:04;8.68;;;3.30;;
51616;SDS011;37697;52.588;13.394;2022-08-03T20:11:08;6.00;;;2.98;;
51616;SDS011;37697;52.588;13.394;2022-08-03T20:16:09;7.80;;;3.40;;
51616;SDS011;37697;52.588;13.394;2022-08-03T20:21:11;5.55;;;3.22;;
51616;SDS011;37697;52.588;13.394;2022-08-03T20:26:15;5.60;;;3.10;;
51616;SDS011;37697;52.588;13.394;2022-08-03T20:31:19;6.78;;;3.12;;
51616;SDS011;37697;52.588;13.394;2022-08-03T20:36:20;4.87;;;3.00;;
51616;SDS011;37697;52.588;13.394;2022-08-03T20:41:21;5.72;;;3.00;;
51616;SDS011;37697;52.588;13.394;2022-08-03T20:46:22;5.35;;;2.95;;
51616;SDS011;37697;52.588;13.394;2022-08-03T20:51:24;6.45;;;3.80;;
51616;SDS011;37697;52.588;13.394;2022-08-03T20:56:27;7.87;;;3.72;;
51616;SDS011;37697;52.588;13.394;2022-08-03T21:01:33;6.80;;;3.72;;
51616;SDS011;37697;52.588;13.394;2022-08-03T21:06:38;4.92;;;3.35;;
51616;SDS011;37697;52.588;13.394;2022-08-03T21:11:47;4.40;;;2.77;;
51616;SDS011;37697;52.588;13.394;2022-08-03T21:16:50;7.97;;;3.62;;
51616;SDS011;37697;52.588;13.394;2022-08-03T21:21:52;7.33;;;3.55;;
51616;SDS011;37697;52.588;13.394;2022-08-03T21:26:54;5.75;;;3.58;;
51616;SDS011;37697;52.588;13.394;2022-08-03T21:31:56;5.80;;;3.72;;
51616;SDS011;37697;52.588;13.394;2022-08-03T21:37:00;4.70;;;3.47;;
51616;SDS011;37697;52.588;13.394;2022-08-03T21:42:02;5.28;;;3.52;;
51616;SDS011;37697;52.588;13.394;2022-08-03T21:47:04;5.08;;;3.65;;
51616;SDS011;37697;52.588;13.394;2022-08-03T21:52:09;5.30;;;4.03;;
51616;SDS011;37697;52.588;13.394;2022-08-03T21:57:12;5.65;;;4.03;;
51616;SDS011;37697;52.588;13.394;2022-08-03T22:02:20;5.75;;;4.20;;
51616;SDS011;37697;52.588;13.394;2022-08-03T22:07:25;5.45;;;3.98;;
51616;SDS011;37697;52.588;13.394;2022-08-03T22:12:28;6.47;;;4.00;;
51616;SDS011;37697;52.588;13.394;2022-08-03T22:17:31;8.40;;;4.30;;
51616;SDS011;37697;52.588;13.394;2022-08-03T22:22:35;4.97;;;4.20;;
51616;SDS011;37697;52.588;13.394;2022-08-03T22:27:38;6.53;;;4.42;;
51616;SDS011;37697;52.588;13.394;2022-08-03T22:32:43;5.90;;;4.50;;
51616;SDS011;37697;52.588;13.394;2022-08-03T22:37:45;5.87;;;4.50;;
51616;SDS011;37697;52.588;13.394;2022-08-03T22:42:49;5.60;;;4.40;;
51616;SDS011;37697;52.588;13.394;2022-08-03T22:47:51;6.22;;;4.37;;
51616;SDS011;37697;52.588;13.394;2022-08-03T22:52:55;5.50;;;4.33;;
51616;SDS011;37697;52.588;13.394;2022-08-03T22:57:56;5.95;;;4.37;;
51616;SDS011;37697;52.588;13.394;2022-08-03T23:02:56;7.47;;;4.25;;
51616;SDS011;37697;52.588;13.394;2022-08-03T23:08:02;5.72;;;4.42;;
51616;SDS011;37697;52.588;13.394;2022-08-03T23:13:03;7.08;;;4.60;;
51616;SDS011;37697;52.588;13.394;2022-08-03T23:18:06;6.17;;;4.25;;
51616;SDS011;37697;52.588;13.394;2022-08-03T23:23:07;5.35;;;4.03;;
51616;SDS011;37697;52.588;13.394;2022-08-03T23:28:09;9.93;;;4.87;;
51616;SDS011;37697;52.588;13.394;2022-08-03T23:33:16;6.00;;;4.85;;
51616;SDS011;37697;52.588;13.394;2022-08-03T23:38:18;6.97;;;4.35;;
51616;SDS011;37697;52.588;13.394;2022-08-03T23:43:20;8.48;;;3.92;;
51616;SDS011;37697;52.588;13.394;2022-08-03T23:48:26;6.62;;;4.67;;
51616;SDS011;37697;52.588;13.394;2022-08-03T23:53:29;7.10;;;4.30;;
51616;SDS011;37697;52.588;13.394;2022-08-03T23:58:45;6.33;;;4.47;;
